createdAt,value
2022-10-24T00:01:43.092Z,495.17
2022-10-24T00:04:10.760Z,494.83
2022-10-24T00:06:40.882Z,481.40
2022-10-24T00:09:09.133Z,500.33
2022-10-24T00:11:38.598Z,494.75
2022-10-24T00:14:06.411Z,481.73
2022-10-24T00:16:35.833Z,473.50
2022-10-24T00:19:04.126Z,487.23
2022-10-24T00:21:32.405Z,477.90
2022-10-24T00:24:00.612Z,476.00
2022-10-24T00:26:30.147Z,484.77
2022-10-24T00:31:29.339Z,446.77
2022-10-24T00:34:08.411Z,396.25
2022-10-24T00:36:36.729Z,396.70
2022-10-24T00:39:04.672Z,389.80
2022-10-24T00:41:39.438Z,404.75
2022-10-24T00:44:20.424Z,394.77
2022-10-24T00:47:19.980Z,381.75
2022-10-24T00:50:01.096Z,390.52
2022-10-24T00:52:34.918Z,398.65
2022-10-24T00:55:05.499Z,388.75
2022-10-24T00:57:46.439Z,413.75
2022-10-24T01:00:22.335Z,404.02
2022-10-24T01:02:50.324Z,408.85
2022-10-24T01:05:21.003Z,399.60
2022-10-24T01:08:09.785Z,402.63
2022-10-24T01:10:58.666Z,395.33
2022-10-24T01:13:32.791Z,415.05
2022-10-24T01:16:24.589Z,462.90
2022-10-24T01:19:25.416Z,442.00
2022-10-24T01:22:20.127Z,426.13
2022-10-24T01:25:13.854Z,416.17
2022-10-24T01:27:54.257Z,404.98
2022-10-24T01:30:22.127Z,364.05
2022-10-24T01:33:16.114Z,320.20
2022-10-24T01:35:48.379Z,316.92
2022-10-24T01:38:36.851Z,315.00
2022-10-24T01:41:13.641Z,312.95
2022-10-24T01:43:48.686Z,319.27
2022-10-24T01:46:24.683Z,317.30
2022-10-24T01:49:00.954Z,346.50
2022-10-24T01:51:32.449Z,353.08
2022-10-24T01:54:01.929Z,353.52
2022-10-24T01:56:29.926Z,355.00
2022-10-24T01:59:07.761Z,370.15
2022-10-24T02:01:36.545Z,364.17
2022-10-24T02:04:09.072Z,385.63
2022-10-24T02:06:41.152Z,384.95
2022-10-24T02:09:17.838Z,393.98
2022-10-24T02:11:47.471Z,392.55
2022-10-24T02:14:25.324Z,405.27
2022-10-24T02:16:53.536Z,427.80
2022-10-24T02:19:21.998Z,432.35
2022-10-24T02:22:03.400Z,416.17
2022-10-24T02:24:42.684Z,423.90
2022-10-24T02:27:21.950Z,431.30
2022-10-24T02:30:11.577Z,414.77
2022-10-24T02:32:44.253Z,417.30
2022-10-24T02:35:15.697Z,409.23
2022-10-24T02:37:50.570Z,409.42
2022-10-24T02:40:21.424Z,405.70
2022-10-24T02:42:54.258Z,419.13
2022-10-24T02:45:23.457Z,421.55
2022-10-24T02:48:03.476Z,423.15
2022-10-24T02:50:32.904Z,420.63
2022-10-24T02:53:00.969Z,434.20
2022-10-24T02:55:28.927Z,435.10
2022-10-24T02:57:56.842Z,436.50
2022-10-24T03:00:24.697Z,437.42
2022-10-24T03:02:52.587Z,447.92
2022-10-24T03:05:20.469Z,439.17
2022-10-24T03:07:48.361Z,441.48
2022-10-24T03:10:16.341Z,450.45
2022-10-24T03:12:44.816Z,443.00
2022-10-24T03:15:13.025Z,439.80
2022-10-24T03:17:41.357Z,448.83
2022-10-24T03:20:09.868Z,454.50
2022-10-24T03:22:38.242Z,452.60
2022-10-24T03:25:07.140Z,460.45
2022-10-24T03:27:35.339Z,459.25
2022-10-24T03:30:04.581Z,446.33
2022-10-24T03:32:34.503Z,440.88
2022-10-24T03:35:02.825Z,426.23
2022-10-24T03:37:31.226Z,428.55
2022-10-24T03:39:59.034Z,421.88
2022-10-24T03:42:27.812Z,429.85
2022-10-24T03:44:55.774Z,424.98
2022-10-24T03:47:23.714Z,442.42
2022-10-24T03:49:51.915Z,434.65
2022-10-24T03:52:19.690Z,446.35
2022-10-24T03:54:47.575Z,440.70
2022-10-24T03:57:15.456Z,440.30
2022-10-24T03:59:43.789Z,440.92
2022-10-24T04:02:13.287Z,432.50
2022-10-24T04:04:42.310Z,454.25
2022-10-24T04:07:10.111Z,468.00
2022-10-24T04:09:38.066Z,455.02
2022-10-24T04:12:06.086Z,455.52
2022-10-24T04:14:34.359Z,467.40
2022-10-24T04:17:02.517Z,473.55
2022-10-24T04:19:30.666Z,475.48
2022-10-24T04:21:59.151Z,477.08
2022-10-24T04:24:27.096Z,482.60
2022-10-24T04:26:55.293Z,477.23
2022-10-24T04:29:23.094Z,484.52
2022-10-24T04:31:50.884Z,481.05
2022-10-24T04:34:19.124Z,483.00
2022-10-24T04:36:46.862Z,478.42
2022-10-24T04:39:15.199Z,489.98
2022-10-24T04:41:43.347Z,488.23
2022-10-24T04:44:11.716Z,477.45
2022-10-24T04:46:39.914Z,479.13
2022-10-24T04:49:08.079Z,484.08
2022-10-24T04:51:36.224Z,472.30
2022-10-24T04:54:04.492Z,489.95
2022-10-24T04:56:32.649Z,477.15
2022-10-24T04:59:00.814Z,490.15
2022-10-24T05:01:29.183Z,475.63
2022-10-24T05:03:57.024Z,469.40
2022-10-24T05:06:25.309Z,469.95
2022-10-24T05:08:53.106Z,470.85
2022-10-24T05:11:21.294Z,479.77
2022-10-24T05:13:49.439Z,469.13
2022-10-24T05:16:17.640Z,480.13
2022-10-24T05:18:45.688Z,470.13
2022-10-24T05:21:13.796Z,477.38
2022-10-24T05:23:41.786Z,476.85
2022-10-24T05:26:10.072Z,481.95
2022-10-24T05:28:38.221Z,483.65
2022-10-24T05:31:06.353Z,480.17
2022-10-24T05:33:34.393Z,465.70
2022-10-24T05:36:02.776Z,473.10
2022-10-24T05:38:30.842Z,474.70
2022-10-24T05:40:59.008Z,479.23
2022-10-24T05:43:27.081Z,494.80
2022-10-24T05:45:55.218Z,499.05
2022-10-24T05:48:48.967Z,482.55
2022-10-24T05:51:17.485Z,474.35
2022-10-24T05:53:45.342Z,479.02
2022-10-24T05:56:13.529Z,481.60
2022-10-24T05:58:41.216Z,480.95
2022-10-24T06:01:09.590Z,487.02
2022-10-24T06:03:37.773Z,482.85
2022-10-24T06:06:10.123Z,486.75
2022-10-24T06:08:38.758Z,482.35
2022-10-24T06:11:10.882Z,492.33
2022-10-24T06:13:39.687Z,493.15
2022-10-24T06:16:09.472Z,491.52
2022-10-24T06:18:38.894Z,487.63
2022-10-24T06:21:09.173Z,495.88
2022-10-24T06:23:37.424Z,485.58
2022-10-24T06:26:12.038Z,495.00
2022-10-24T06:28:40.674Z,496.08
2022-10-24T06:31:09.346Z,490.40
2022-10-24T06:33:37.699Z,497.95
2022-10-24T06:36:09.422Z,508.77
2022-10-24T06:38:37.609Z,504.70
2022-10-24T06:41:11.128Z,508.98
2022-10-24T06:43:39.582Z,509.10
2022-10-24T06:46:09.990Z,512.53
2022-10-24T06:48:38.387Z,516.22
2022-10-24T06:51:06.574Z,521.30
2022-10-24T06:53:35.250Z,525.00
2022-10-24T06:56:05.332Z,534.22
2022-10-24T06:58:36.026Z,544.08
2022-10-24T07:01:20.763Z,544.88
2022-10-24T07:03:49.476Z,553.45
2022-10-24T07:08:57.163Z,572.65
2022-10-24T07:11:25.886Z,581.05
2022-10-24T07:13:56.668Z,583.72
2022-10-24T07:16:28.477Z,589.17
2022-10-24T07:18:56.898Z,593.95
2022-10-24T07:21:31.089Z,591.13
2022-10-24T07:24:00.284Z,594.55
2022-10-24T07:26:30.067Z,604.92
2022-10-24T07:31:36.075Z,596.63
2022-10-24T07:34:07.570Z,604.03
2022-10-24T07:36:40.192Z,605.17
2022-10-24T07:39:12.063Z,614.60
2022-10-24T07:41:42.001Z,605.40
2022-10-24T07:44:11.212Z,616.08
2022-10-24T07:46:42.516Z,613.90
2022-10-24T07:49:10.899Z,623.58
2022-10-24T07:51:40.428Z,623.20
2022-10-24T07:54:08.711Z,618.58
2022-10-24T07:56:37.199Z,622.65
2022-10-24T07:59:09.456Z,617.85
2022-10-24T08:01:41.968Z,621.97
2022-10-24T08:04:11.282Z,620.28
2022-10-24T08:06:40.840Z,630.22
2022-10-24T08:09:09.425Z,623.05
2022-10-24T08:11:37.661Z,627.97
2022-10-24T08:14:06.003Z,622.50
2022-10-24T08:16:34.233Z,633.63
2022-10-24T08:19:02.617Z,639.38
2022-10-24T08:21:31.753Z,638.33
2022-10-24T08:24:00.546Z,637.33
2022-10-24T08:26:29.972Z,635.53
2022-10-24T08:29:11.020Z,646.47
2022-10-24T08:31:56.412Z,652.03
2022-10-24T08:34:35.796Z,652.00
2022-10-24T08:37:06.270Z,659.85
2022-10-24T08:39:39.517Z,661.83
2022-10-24T08:42:14.738Z,669.95
2022-10-24T08:44:55.547Z,666.75
2022-10-24T08:48:24.521Z,673.08
2022-10-24T08:51:11.026Z,655.22
2022-10-24T08:53:44.927Z,666.05
2022-10-24T08:56:13.751Z,642.00
2022-10-24T08:58:57.019Z,629.45
2022-10-24T09:02:08.018Z,577.03
2022-10-24T09:05:12.017Z,558.92
2022-10-24T09:07:40.988Z,561.60
2022-10-24T09:10:22.869Z,561.78
2022-10-24T09:12:52.606Z,584.47
2022-10-24T09:15:31.292Z,593.30
2022-10-24T09:18:00.331Z,626.13
2022-10-24T09:20:33.528Z,652.08
2022-10-24T09:23:05.475Z,686.28
2022-10-24T09:25:36.554Z,675.88
2022-10-24T09:28:06.892Z,675.85
2022-10-24T09:30:37.576Z,669.50
2022-10-24T09:33:26.107Z,675.90
2022-10-24T09:36:00.718Z,684.78
2022-10-24T09:38:37.786Z,702.13
2022-10-24T09:41:24.854Z,699.00
2022-10-24T09:43:59.228Z,714.03
2022-10-24T09:46:45.221Z,708.03
2022-10-24T09:49:17.171Z,705.22
2022-10-24T09:52:15.748Z,712.83
2022-10-24T09:54:46.535Z,699.20
2022-10-24T09:57:18.299Z,692.92
2022-10-24T10:00:00.317Z,688.35
2022-10-24T10:02:37.745Z,702.55
2022-10-24T10:05:06.896Z,707.50
2022-10-24T10:07:37.481Z,705.38
2022-10-24T10:10:35.131Z,663.63
2022-10-24T10:13:15.397Z,675.67
2022-10-24T10:15:47.957Z,695.90
2022-10-24T10:18:42.734Z,699.67
2022-10-24T10:21:19.347Z,693.60
2022-10-24T10:23:56.880Z,702.05
2022-10-24T10:26:28.739Z,702.08
2022-10-24T10:29:21.020Z,691.15
2022-10-24T10:32:18.031Z,675.60
2022-10-24T10:35:04.548Z,670.08
2022-10-24T10:37:36.044Z,652.47
2022-10-24T10:40:21.334Z,680.78
2022-10-24T10:43:06.142Z,653.13
2022-10-24T10:46:08.589Z,661.53
2022-10-24T10:49:20.961Z,666.80
2022-10-24T10:51:58.171Z,668.88
2022-10-24T10:54:47.647Z,684.97
2022-10-24T10:57:22.072Z,653.90
2022-10-24T11:00:13.285Z,652.35
2022-10-24T11:03:18.384Z,669.60
2022-10-24T11:06:23.066Z,674.08
2022-10-24T11:09:34.009Z,672.85
2022-10-24T11:12:26.673Z,646.30
2022-10-24T11:15:15.649Z,621.78
2022-10-24T11:17:55.117Z,581.53
2022-10-24T11:20:37.887Z,576.95
2022-10-24T11:23:30.067Z,594.03
2022-10-24T11:26:15.413Z,619.42
2022-10-24T11:29:25.240Z,586.38
2022-10-24T11:32:21.233Z,602.53
2022-10-24T11:34:57.215Z,636.13
2022-10-24T11:37:32.275Z,689.90
2022-10-24T11:40:19.000Z,710.78
2022-10-24T11:42:58.697Z,755.92
2022-10-24T11:45:42.367Z,759.33
2022-10-24T11:48:45.336Z,724.80
2022-10-24T11:51:34.629Z,753.45
2022-10-24T11:54:23.964Z,732.10
2022-10-24T11:57:15.971Z,715.65
2022-10-24T11:59:43.935Z,707.45
2022-10-24T12:02:53.426Z,700.75
2022-10-24T12:05:45.074Z,713.88
2022-10-24T12:08:29.007Z,704.45
2022-10-24T12:11:34.221Z,711.22
2022-10-24T12:14:19.107Z,687.70
2022-10-24T12:17:38.349Z,692.83
2022-10-24T12:20:13.830Z,770.08
2022-10-24T12:22:44.511Z,793.60
2022-10-24T12:25:21.838Z,709.72
2022-10-24T12:28:21.274Z,657.72
2022-10-24T12:31:15.367Z,634.00
2022-10-24T12:33:46.037Z,664.17
2022-10-24T12:36:14.594Z,712.00
2022-10-24T12:38:42.827Z,738.58
2022-10-24T12:41:32.254Z,687.30
2022-10-24T12:44:35.350Z,691.90
2022-10-24T12:47:36.445Z,668.03
2022-10-24T12:50:30.323Z,659.20
2022-10-24T12:53:17.673Z,648.10
2022-10-24T12:55:51.645Z,675.08
2022-10-24T12:58:35.258Z,678.60
2022-10-24T13:01:13.244Z,687.50
2022-10-24T13:03:44.252Z,668.55
2022-10-24T13:06:33.612Z,633.45
2022-10-24T13:09:31.923Z,632.97
2022-10-24T13:12:29.953Z,613.13
2022-10-24T13:15:25.393Z,629.67
2022-10-24T13:18:40.025Z,483.67
2022-10-24T13:21:16.472Z,543.90
2022-10-24T13:23:47.476Z,548.10
2022-10-24T13:26:47.459Z,563.95
2022-10-24T13:29:24.708Z,578.72
2022-10-24T13:32:16.136Z,569.17
2022-10-24T13:34:52.559Z,610.45
2022-10-24T13:37:31.610Z,640.13
2022-10-24T13:40:19.557Z,564.38
2022-10-24T13:42:57.241Z,614.40
2022-10-24T13:45:33.087Z,611.42
2022-10-24T13:48:18.982Z,610.78
2022-10-24T13:51:18.466Z,565.97
2022-10-24T13:54:02.352Z,513.35
2022-10-24T13:56:37.473Z,576.10
2022-10-24T13:59:07.662Z,562.13
2022-10-24T14:04:08.443Z,538.13
2022-10-24T14:06:36.281Z,567.38
2022-10-24T14:09:11.809Z,611.78
2022-10-24T14:11:47.853Z,617.03
2022-10-24T14:14:36.240Z,630.25
2022-10-24T14:17:33.744Z,671.17
2022-10-24T14:20:10.702Z,646.40
2022-10-24T14:22:41.223Z,619.60
2022-10-24T14:25:36.413Z,641.75
2022-10-24T14:28:16.566Z,659.80
2022-10-24T14:31:30.996Z,661.22
2022-10-24T14:33:59.064Z,708.33
2022-10-24T14:36:32.887Z,700.95
2022-10-24T14:39:04.885Z,625.40
2022-10-24T14:41:40.969Z,634.78
2022-10-24T14:44:15.240Z,682.45
2022-10-24T14:46:46.718Z,639.83
2022-10-24T14:49:27.361Z,722.63
2022-10-24T14:51:59.115Z,710.80
2022-10-24T14:54:33.194Z,701.25
2022-10-24T14:57:04.516Z,640.25
2022-10-24T14:59:38.029Z,631.72
2022-10-24T15:02:20.739Z,610.65
2022-10-24T15:04:51.867Z,535.35
2022-10-24T15:07:22.634Z,503.50
2022-10-24T15:09:59.524Z,524.72
2022-10-24T15:12:42.737Z,497.17
2022-10-24T15:15:33.230Z,500.05
2022-10-24T15:18:21.014Z,506.65
2022-10-24T15:20:52.466Z,531.60
2022-10-24T15:23:31.802Z,508.73
2022-10-24T15:26:21.737Z,555.42
2022-10-24T15:29:03.165Z,563.10
2022-10-24T15:31:35.161Z,565.08
2022-10-24T15:34:04.129Z,508.10
2022-10-24T15:36:42.426Z,513.72
2022-10-24T15:39:10.213Z,485.92
2022-10-24T15:41:40.109Z,481.65
2022-10-24T15:44:29.437Z,492.73
2022-10-24T15:46:58.215Z,484.92
2022-10-24T15:49:27.073Z,482.48
2022-10-24T15:51:55.051Z,483.08
2022-10-24T15:54:23.518Z,506.20
2022-10-24T15:56:52.262Z,487.27
2022-10-24T15:59:20.546Z,471.75
2022-10-24T16:01:56.535Z,482.35
2022-10-24T16:04:25.085Z,438.45
2022-10-24T16:06:53.250Z,471.10
2022-10-24T16:09:27.154Z,467.48
2022-10-24T16:11:55.699Z,466.98
2022-10-24T16:14:27.010Z,438.38
2022-10-24T16:16:57.835Z,431.17
2022-10-24T16:19:27.297Z,442.75
2022-10-24T16:21:59.669Z,457.17
2022-10-24T16:24:29.132Z,417.55
2022-10-24T16:26:57.472Z,410.27
2022-10-24T16:29:25.374Z,407.25
2022-10-24T16:31:53.226Z,408.65
2022-10-24T16:34:21.099Z,410.52
2022-10-24T16:36:53.433Z,433.98
2022-10-24T16:39:21.727Z,442.92
2022-10-24T16:41:54.556Z,444.27
2022-10-24T16:44:22.399Z,446.58
2022-10-24T16:46:54.216Z,448.58
2022-10-24T16:49:22.173Z,405.42
2022-10-24T16:51:50.123Z,467.13
2022-10-24T16:54:19.493Z,486.90
2022-10-24T16:56:53.348Z,445.38
2022-10-24T16:59:21.916Z,469.25
2022-10-24T17:01:50.346Z,474.63
2022-10-24T17:04:18.347Z,498.70
2022-10-24T17:06:46.217Z,475.65
2022-10-24T17:09:14.078Z,464.20
2022-10-24T17:11:46.331Z,474.13
2022-10-24T17:14:14.959Z,475.58
2022-10-24T17:16:45.030Z,465.92
2022-10-24T17:19:17.435Z,467.42
2022-10-24T17:21:48.878Z,452.92
2022-10-24T17:24:24.628Z,448.20
2022-10-24T17:26:53.544Z,478.77
2022-10-24T17:29:34.432Z,446.05
2022-10-24T17:32:02.492Z,427.17
2022-10-24T17:34:30.687Z,442.17
2022-10-24T17:37:21.063Z,451.60
2022-10-24T17:39:52.821Z,451.08
2022-10-24T17:42:21.381Z,477.83
2022-10-24T17:44:49.504Z,513.70
2022-10-24T17:47:17.605Z,487.08
2022-10-24T17:49:45.607Z,486.90
2022-10-24T17:52:21.538Z,491.23
2022-10-24T17:54:50.034Z,481.15
2022-10-24T17:57:17.865Z,473.85
2022-10-24T17:59:46.113Z,460.65
2022-10-24T18:02:14.690Z,435.52
2022-10-24T18:04:44.755Z,477.65
2022-10-24T18:07:12.865Z,454.27
2022-10-24T18:09:40.966Z,443.67
2022-10-24T18:12:09.909Z,429.20
2022-10-24T18:14:37.838Z,432.13
2022-10-24T18:17:05.706Z,399.08
2022-10-24T18:19:33.769Z,417.88
2022-10-24T18:22:01.706Z,424.00
2022-10-24T18:24:31.575Z,402.15
2022-10-24T18:26:59.451Z,392.73
2022-10-24T18:29:27.331Z,400.88
2022-10-24T18:31:55.167Z,384.65
2022-10-24T18:34:23.089Z,381.45
2022-10-24T18:36:50.994Z,373.15
2022-10-24T18:39:19.505Z,363.05
2022-10-24T18:42:03.773Z,356.13
2022-10-24T18:44:34.878Z,382.58
2022-10-24T18:47:07.381Z,331.45
2022-10-24T18:49:36.199Z,342.98
2022-10-24T18:52:09.795Z,348.38
2022-10-24T18:55:04.032Z,363.25
2022-10-24T18:57:34.654Z,340.63
2022-10-24T19:00:05.177Z,352.45
2022-10-24T19:02:49.107Z,334.02
2022-10-24T19:05:24.876Z,316.52
2022-10-24T19:07:53.389Z,300.65
2022-10-24T19:10:27.326Z,282.42
2022-10-24T19:12:57.297Z,305.30
2022-10-24T19:15:25.653Z,317.98
2022-10-24T19:17:53.824Z,306.85
2022-10-24T19:20:24.118Z,315.05
2022-10-24T19:22:52.048Z,326.42
2022-10-24T19:25:20.397Z,348.90
2022-10-24T19:27:49.454Z,321.23
2022-10-24T19:30:17.752Z,325.77
2022-10-24T19:32:45.752Z,339.17
2022-10-24T19:35:14.133Z,345.77
2022-10-24T19:37:42.053Z,329.23
2022-10-24T19:40:11.010Z,327.20
2022-10-24T19:42:38.822Z,323.55
2022-10-24T19:45:07.711Z,328.08
2022-10-24T19:47:35.914Z,313.88
2022-10-24T19:50:03.711Z,264.30
2022-10-24T19:52:31.668Z,282.60
2022-10-24T19:55:00.209Z,281.80
2022-10-24T19:57:28.659Z,278.75
2022-10-24T19:59:56.383Z,263.83
2022-10-24T20:02:27.690Z,271.02
2022-10-24T20:04:55.728Z,271.92
2022-10-24T20:07:23.614Z,268.75
2022-10-24T20:09:51.446Z,247.38
2022-10-24T20:12:19.377Z,265.55
2022-10-24T20:14:47.163Z,272.67
2022-10-24T20:17:15.214Z,265.92
2022-10-24T20:19:43.278Z,273.98
2022-10-24T20:22:11.100Z,273.85
2022-10-24T20:24:39.058Z,268.50
2022-10-24T20:27:07.713Z,266.65
2022-10-24T20:29:49.673Z,146.68
2022-10-24T20:32:17.515Z,170.40
2022-10-24T20:34:45.310Z,184.68
2022-10-24T20:37:13.178Z,199.80
2022-10-24T20:39:41.016Z,212.18
2022-10-24T20:42:08.989Z,218.50
2022-10-24T20:44:36.835Z,204.13
2022-10-24T20:47:05.286Z,208.15
2022-10-24T20:49:34.073Z,209.90
2022-10-24T20:52:02.217Z,216.57
2022-10-24T20:54:30.152Z,211.30
2022-10-24T20:56:58.061Z,219.85
2022-10-24T20:59:25.832Z,205.55
2022-10-24T21:01:53.868Z,212.52
2022-10-24T21:04:21.765Z,204.93
2022-10-24T21:06:49.598Z,212.38
2022-10-24T21:09:17.444Z,217.63
2022-10-24T21:11:45.388Z,209.40
2022-10-24T21:14:14.979Z,214.05
2022-10-24T21:16:42.849Z,205.55
2022-10-24T21:19:10.629Z,209.98
2022-10-24T21:21:39.047Z,203.25
2022-10-24T21:24:07.673Z,203.90
2022-10-24T21:26:38.621Z,205.45
2022-10-24T21:29:15.043Z,205.43
2022-10-24T21:31:56.213Z,191.38
2022-10-24T21:34:24.050Z,189.93
2022-10-24T21:36:51.857Z,199.13
2022-10-24T21:39:19.635Z,192.50
2022-10-24T21:41:47.446Z,187.93
2022-10-24T21:44:15.382Z,194.77
2022-10-24T21:46:43.456Z,185.48
2022-10-24T21:49:11.402Z,195.80
2022-10-24T21:51:41.364Z,192.18
2022-10-24T21:54:24.346Z,196.88
2022-10-24T21:56:52.307Z,182.95
2022-10-24T21:59:21.445Z,196.07
2022-10-24T22:01:51.699Z,189.88
2022-10-24T22:04:20.433Z,196.32
2022-10-24T22:06:48.498Z,192.27
2022-10-24T22:09:20.720Z,194.15
2022-10-24T22:11:50.195Z,201.88
2022-10-24T22:14:18.785Z,192.23
2022-10-24T22:16:47.467Z,172.70
2022-10-24T22:19:15.725Z,189.57
2022-10-24T22:21:50.589Z,182.38
2022-10-24T22:24:22.077Z,197.60
2022-10-24T22:26:51.308Z,190.55
2022-10-24T22:29:22.639Z,185.98
2022-10-24T22:31:52.353Z,197.15
2022-10-24T22:34:25.412Z,191.50
2022-10-24T22:37:25.194Z,198.52
2022-10-24T22:39:56.552Z,198.50
2022-10-24T22:42:25.955Z,192.88
2022-10-24T22:44:54.292Z,192.80
2022-10-24T22:47:31.065Z,195.60
2022-10-24T22:50:27.858Z,196.00
2022-10-24T22:52:56.049Z,198.25
2022-10-24T22:55:34.492Z,201.82
2022-10-24T22:58:02.701Z,194.75
2022-10-24T23:00:31.281Z,191.95
2022-10-24T23:03:29.578Z,213.60
2022-10-24T23:06:06.992Z,207.93
2022-10-24T23:08:40.862Z,205.02
2022-10-24T23:11:13.153Z,201.07
2022-10-24T23:13:42.767Z,203.73
2022-10-24T23:16:27.733Z,213.07
2022-10-24T23:18:55.975Z,205.35
2022-10-24T23:22:00.924Z,205.95
2022-10-24T23:24:29.101Z,195.52
2022-10-24T23:27:17.372Z,203.50
2022-10-24T23:29:47.050Z,208.57
2022-10-24T23:32:26.945Z,205.32
2022-10-24T23:34:56.517Z,212.30
2022-10-24T23:37:40.746Z,206.15
2022-10-24T23:40:17.650Z,201.75
2022-10-24T23:42:47.216Z,197.38
2022-10-24T23:45:22.645Z,199.38
2022-10-24T23:48:17.438Z,210.40
2022-10-24T23:51:15.668Z,200.70
2022-10-24T23:53:51.317Z,184.60
2022-10-24T23:56:22.692Z,175.40
2022-10-24T23:58:51.571Z,182.52
